sensor_id;sensor_type;location;lat;lon;timestamp;P1;durP1;ratioP1;P2;durP2;ratioP2
50291;SDS011;36190;54.980;73.388;2022-12-18T00:02:24;19.57;;;6.57;;
50291;SDS011;36190;54.980;73.388;2022-12-18T00:04:52;21.57;;;8.03;;
50291;SDS011;36190;54.980;73.388;2022-12-18T00:07:19;23.53;;;7.10;;
50291;SDS011;36190;54.980;73.388;2022-12-18T00:09:47;19.20;;;7.70;;
50291;SDS011;36190;54.980;73.388;2022-12-18T00:12:14;16.83;;;6.50;;
50291;SDS011;36190;54.980;73.388;2022-12-18T00:14:41;21.17;;;6.87;;
50291;SDS011;36190;54.980;73.388;2022-12-18T00:17:12;23.20;;;7.30;;
50291;SDS011;36190;54.980;73.388;2022-12-18T00:19:39;19.73;;;6.77;;
50291;SDS011;36190;54.980;73.388;2022-12-18T00:22:06;23.33;;;8.83;;
50291;SDS011;36190;54.980;73.388;2022-12-18T00:24:34;22.30;;;7.63;;
50291;SDS011;36190;54.980;73.388;2022-12-18T00:27:01;22.40;;;8.30;;
50291;SDS011;36190;54.980;73.388;2022-12-18T00:29:29;18.97;;;7.37;;
50291;SDS011;36190;54.980;73.388;2022-12-18T00:31:56;19.70;;;7.50;;
50291;SDS011;36190;54.980;73.388;2022-12-18T00:34:25;22.90;;;8.30;;
50291;SDS011;36190;54.980;73.388;2022-12-18T00:36:53;20.03;;;8.00;;
50291;SDS011;36190;54.980;73.388;2022-12-18T00:39:21;21.23;;;6.67;;
50291;SDS011;36190;54.980;73.388;2022-12-18T00:41:48;18.10;;;7.30;;
50291;SDS011;36190;54.980;73.388;2022-12-18T00:44:32;20.77;;;8.02;;
50291;SDS011;36190;54.980;73.388;2022-12-18T00:46:59;24.90;;;7.73;;
50291;SDS011;36190;54.980;73.388;2022-12-18T00:49:28;21.77;;;7.70;;
50291;SDS011;36190;54.980;73.388;2022-12-18T00:51:55;22.53;;;8.60;;
50291;SDS011;36190;54.980;73.388;2022-12-18T00:54:23;23.43;;;8.23;;
50291;SDS011;36190;54.980;73.388;2022-12-18T00:56:51;22.40;;;7.20;;
50291;SDS011;36190;54.980;73.388;2022-12-18T00:59:20;21.63;;;8.00;;
50291;SDS011;36190;54.980;73.388;2022-12-18T01:01:47;26.57;;;8.07;;
50291;SDS011;36190;54.980;73.388;2022-12-18T01:04:15;23.87;;;7.27;;
50291;SDS011;36190;54.980;73.388;2022-12-18T01:06:44;22.00;;;7.57;;
50291;SDS011;36190;54.980;73.388;2022-12-18T01:09:11;23.80;;;7.57;;
50291;SDS011;36190;54.980;73.388;2022-12-18T01:11:39;23.77;;;8.23;;
50291;SDS011;36190;54.980;73.388;2022-12-18T01:14:06;22.57;;;7.67;;
50291;SDS011;36190;54.980;73.388;2022-12-18T01:16:34;24.17;;;7.67;;
50291;SDS011;36190;54.980;73.388;2022-12-18T01:19:01;24.03;;;7.57;;
50291;SDS011;36190;54.980;73.388;2022-12-18T01:21:29;22.07;;;7.80;;
50291;SDS011;36190;54.980;73.388;2022-12-18T01:23:58;21.90;;;8.00;;
50291;SDS011;36190;54.980;73.388;2022-12-18T01:26:25;23.27;;;9.50;;
50291;SDS011;36190;54.980;73.388;2022-12-18T01:28:54;24.43;;;8.77;;
50291;SDS011;36190;54.980;73.388;2022-12-18T01:31:23;18.10;;;8.17;;
50291;SDS011;36190;54.980;73.388;2022-12-18T01:33:52;30.03;;;8.27;;
50291;SDS011;36190;54.980;73.388;2022-12-18T01:36:20;22.50;;;8.67;;
50291;SDS011;36190;54.980;73.388;2022-12-18T01:38:50;22.17;;;9.03;;
50291;SDS011;36190;54.980;73.388;2022-12-18T01:41:19;20.40;;;8.90;;
50291;SDS011;36190;54.980;73.388;2022-12-18T01:43:50;24.60;;;7.97;;
50291;SDS011;36190;54.980;73.388;2022-12-18T01:46:20;26.47;;;11.73;;
50291;SDS011;36190;54.980;73.388;2022-12-18T01:48:50;19.47;;;8.27;;
50291;SDS011;36190;54.980;73.388;2022-12-18T01:51:22;23.45;;;8.32;;
50291;SDS011;36190;54.980;73.388;2022-12-18T01:53:50;21.30;;;8.20;;
50291;SDS011;36190;54.980;73.388;2022-12-18T01:56:19;18.97;;;6.57;;
50291;SDS011;36190;54.980;73.388;2022-12-18T01:58:52;19.03;;;6.63;;
50291;SDS011;36190;54.980;73.388;2022-12-18T02:01:23;21.00;;;7.43;;
50291;SDS011;36190;54.980;73.388;2022-12-18T02:03:52;18.03;;;6.87;;
50291;SDS011;36190;54.980;73.388;2022-12-18T02:06:20;17.13;;;7.17;;
50291;SDS011;36190;54.980;73.388;2022-12-18T02:09:02;17.10;;;6.17;;
50291;SDS011;36190;54.980;73.388;2022-12-18T02:11:41;15.38;;;5.78;;
50291;SDS011;36190;54.980;73.388;2022-12-18T02:14:18;21.67;;;6.73;;
50291;SDS011;36190;54.980;73.388;2022-12-18T02:16:52;22.87;;;6.13;;
50291;SDS011;36190;54.980;73.388;2022-12-18T02:19:37;19.30;;;7.00;;
50291;SDS011;36190;54.980;73.388;2022-12-18T02:22:15;23.98;;;8.48;;
50291;SDS011;36190;54.980;73.388;2022-12-18T02:25:00;21.40;;;7.30;;
50291;SDS011;36190;54.980;73.388;2022-12-18T02:27:39;19.93;;;6.90;;
50291;SDS011;36190;54.980;73.388;2022-12-18T02:30:11;30.25;;;9.90;;
50291;SDS011;36190;54.980;73.388;2022-12-18T02:32:40;22.00;;;8.53;;
50291;SDS011;36190;54.980;73.388;2022-12-18T02:35:13;23.23;;;7.85;;
50291;SDS011;36190;54.980;73.388;2022-12-18T02:37:45;24.90;;;9.57;;
50291;SDS011;36190;54.980;73.388;2022-12-18T02:40:14;22.50;;;8.37;;
50291;SDS011;36190;54.980;73.388;2022-12-18T02:42:45;28.63;;;9.27;;
50291;SDS011;36190;54.980;73.388;2022-12-18T02:45:13;24.20;;;9.53;;
50291;SDS011;36190;54.980;73.388;2022-12-18T02:47:40;22.57;;;8.37;;
50291;SDS011;36190;54.980;73.388;2022-12-18T02:50:13;21.37;;;8.63;;
50291;SDS011;36190;54.980;73.388;2022-12-18T02:52:52;24.60;;;8.53;;
50291;SDS011;36190;54.980;73.388;2022-12-18T02:55:31;18.80;;;8.03;;
50291;SDS011;36190;54.980;73.388;2022-12-18T02:58:12;23.23;;;7.53;;
50291;SDS011;36190;54.980;73.388;2022-12-18T03:00:46;19.73;;;7.40;;
50291;SDS011;36190;54.980;73.388;2022-12-18T03:03:19;22.37;;;7.67;;
50291;SDS011;36190;54.980;73.388;2022-12-18T03:05:56;20.40;;;7.70;;
50291;SDS011;36190;54.980;73.388;2022-12-18T03:08:27;23.57;;;9.47;;
50291;SDS011;36190;54.980;73.388;2022-12-18T03:10:59;26.20;;;9.27;;
50291;SDS011;36190;54.980;73.388;2022-12-18T03:13:33;21.23;;;7.72;;
50291;SDS011;36190;54.980;73.388;2022-12-18T03:16:04;20.00;;;7.37;;
50291;SDS011;36190;54.980;73.388;2022-12-18T03:18:36;17.57;;;7.03;;
50291;SDS011;36190;54.980;73.388;2022-12-18T03:21:09;24.70;;;7.55;;
50291;SDS011;36190;54.980;73.388;2022-12-18T03:23:39;19.83;;;7.43;;
50291;SDS011;36190;54.980;73.388;2022-12-18T03:26:13;22.53;;;7.60;;
50291;SDS011;36190;54.980;73.388;2022-12-18T03:28:46;20.23;;;7.63;;
50291;SDS011;36190;54.980;73.388;2022-12-18T03:31:17;21.60;;;7.60;;
50291;SDS011;36190;54.980;73.388;2022-12-18T03:33:51;19.73;;;7.50;;
50291;SDS011;36190;54.980;73.388;2022-12-18T03:36:20;22.47;;;7.47;;
50291;SDS011;36190;54.980;73.388;2022-12-18T03:38:48;20.73;;;7.40;;
50291;SDS011;36190;54.980;73.388;2022-12-18T03:41:17;27.23;;;8.63;;
50291;SDS011;36190;54.980;73.388;2022-12-18T03:43:52;20.57;;;8.37;;
50291;SDS011;36190;54.980;73.388;2022-12-18T03:46:27;25.03;;;9.30;;
50291;SDS011;36190;54.980;73.388;2022-12-18T03:48:59;21.87;;;7.70;;
50291;SDS011;36190;54.980;73.388;2022-12-18T03:51:35;23.23;;;8.33;;
50291;SDS011;36190;54.980;73.388;2022-12-18T03:54:09;24.60;;;9.03;;
50291;SDS011;36190;54.980;73.388;2022-12-18T03:56:39;22.37;;;9.97;;
50291;SDS011;36190;54.980;73.388;2022-12-18T03:59:11;31.97;;;10.60;;
50291;SDS011;36190;54.980;73.388;2022-12-18T04:01:42;37.53;;;11.23;;
50291;SDS011;36190;54.980;73.388;2022-12-18T04:04:13;30.93;;;11.43;;
50291;SDS011;36190;54.980;73.388;2022-12-18T04:06:43;35.97;;;12.10;;
50291;SDS011;36190;54.980;73.388;2022-12-18T04:09:12;35.73;;;12.20;;
50291;SDS011;36190;54.980;73.388;2022-12-18T04:11:40;41.13;;;14.63;;
50291;SDS011;36190;54.980;73.388;2022-12-18T04:14:09;44.27;;;15.17;;
50291;SDS011;36190;54.980;73.388;2022-12-18T04:16:38;46.73;;;17.40;;
50291;SDS011;36190;54.980;73.388;2022-12-18T04:19:05;46.17;;;16.60;;
50291;SDS011;36190;54.980;73.388;2022-12-18T04:21:33;40.47;;;14.30;;
50291;SDS011;36190;54.980;73.388;2022-12-18T04:24:00;47.67;;;17.77;;
50291;SDS011;36190;54.980;73.388;2022-12-18T04:26:28;50.37;;;19.30;;
50291;SDS011;36190;54.980;73.388;2022-12-18T04:28:55;57.53;;;21.63;;
50291;SDS011;36190;54.980;73.388;2022-12-18T04:31:24;57.57;;;19.80;;
50291;SDS011;36190;54.980;73.388;2022-12-18T04:33:51;66.23;;;24.23;;
50291;SDS011;36190;54.980;73.388;2022-12-18T04:36:19;64.23;;;25.33;;
50291;SDS011;36190;54.980;73.388;2022-12-18T04:38:46;89.60;;;30.93;;
50291;SDS011;36190;54.980;73.388;2022-12-18T04:41:14;109.27;;;37.17;;
50291;SDS011;36190;54.980;73.388;2022-12-18T04:43:41;98.53;;;33.37;;
50291;SDS011;36190;54.980;73.388;2022-12-18T04:46:09;98.63;;;35.07;;
50291;SDS011;36190;54.980;73.388;2022-12-18T04:48:38;100.87;;;30.93;;
50291;SDS011;36190;54.980;73.388;2022-12-18T04:51:06;91.30;;;29.30;;
50291;SDS011;36190;54.980;73.388;2022-12-18T04:53:34;113.40;;;35.90;;
50291;SDS011;36190;54.980;73.388;2022-12-18T04:56:05;113.50;;;37.23;;
50291;SDS011;36190;54.980;73.388;2022-12-18T04:58:34;98.27;;;34.77;;
50291;SDS011;36190;54.980;73.388;2022-12-18T05:01:01;96.97;;;34.03;;
50291;SDS011;36190;54.980;73.388;2022-12-18T05:03:29;95.50;;;30.57;;
50291;SDS011;36190;54.980;73.388;2022-12-18T05:05:58;104.90;;;37.47;;
50291;SDS011;36190;54.980;73.388;2022-12-18T05:08:26;114.80;;;37.30;;
50291;SDS011;36190;54.980;73.388;2022-12-18T05:10:58;109.93;;;36.30;;
50291;SDS011;36190;54.980;73.388;2022-12-18T05:13:25;125.73;;;41.80;;
50291;SDS011;36190;54.980;73.388;2022-12-18T05:15:53;120.43;;;40.07;;
50291;SDS011;36190;54.980;73.388;2022-12-18T05:18:21;122.17;;;44.30;;
50291;SDS011;36190;54.980;73.388;2022-12-18T05:20:48;119.50;;;41.63;;
50291;SDS011;36190;54.980;73.388;2022-12-18T05:23:18;122.70;;;44.13;;
50291;SDS011;36190;54.980;73.388;2022-12-18T05:25:46;89.17;;;31.67;;
50291;SDS011;36190;54.980;73.388;2022-12-18T05:28:17;119.60;;;41.07;;
50291;SDS011;36190;54.980;73.388;2022-12-18T05:30:47;117.47;;;41.03;;
50291;SDS011;36190;54.980;73.388;2022-12-18T05:33:15;118.70;;;38.70;;
50291;SDS011;36190;54.980;73.388;2022-12-18T05:35:43;110.53;;;39.70;;
50291;SDS011;36190;54.980;73.388;2022-12-18T05:38:10;106.90;;;38.43;;
50291;SDS011;36190;54.980;73.388;2022-12-18T05:40:42;118.70;;;39.93;;
50291;SDS011;36190;54.980;73.388;2022-12-18T05:43:10;109.37;;;38.90;;
50291;SDS011;36190;54.980;73.388;2022-12-18T05:45:38;112.37;;;39.97;;
50291;SDS011;36190;54.980;73.388;2022-12-18T05:48:06;113.57;;;41.33;;
50291;SDS011;36190;54.980;73.388;2022-12-18T05:50:34;113.63;;;43.00;;
50291;SDS011;36190;54.980;73.388;2022-12-18T05:53:02;121.77;;;44.73;;
50291;SDS011;36190;54.980;73.388;2022-12-18T05:55:32;140.27;;;49.67;;
50291;SDS011;36190;54.980;73.388;2022-12-18T05:58:02;144.17;;;48.37;;
50291;SDS011;36190;54.980;73.388;2022-12-18T06:00:31;150.93;;;51.90;;
50291;SDS011;36190;54.980;73.388;2022-12-18T06:03:00;126.53;;;50.40;;
50291;SDS011;36190;54.980;73.388;2022-12-18T06:05:28;137.33;;;45.63;;
50291;SDS011;36190;54.980;73.388;2022-12-18T06:07:55;126.03;;;44.83;;
50291;SDS011;36190;54.980;73.388;2022-12-18T06:10:23;153.70;;;49.97;;
50291;SDS011;36190;54.980;73.388;2022-12-18T06:12:50;110.43;;;42.00;;
50291;SDS011;36190;54.980;73.388;2022-12-18T06:15:19;146.20;;;49.80;;
50291;SDS011;36190;54.980;73.388;2022-12-18T06:17:46;137.27;;;47.43;;
50291;SDS011;36190;54.980;73.388;2022-12-18T06:20:14;152.67;;;54.23;;
50291;SDS011;36190;54.980;73.388;2022-12-18T06:22:41;114.60;;;39.40;;
50291;SDS011;36190;54.980;73.388;2022-12-18T06:25:09;136.83;;;51.77;;
50291;SDS011;36190;54.980;73.388;2022-12-18T06:27:37;144.90;;;50.57;;
50291;SDS011;36190;54.980;73.388;2022-12-18T06:30:04;127.80;;;42.10;;
50291;SDS011;36190;54.980;73.388;2022-12-18T06:32:34;132.47;;;48.63;;
50291;SDS011;36190;54.980;73.388;2022-12-18T06:35:02;146.93;;;50.63;;
50291;SDS011;36190;54.980;73.388;2022-12-18T06:37:30;112.57;;;42.87;;
50291;SDS011;36190;54.980;73.388;2022-12-18T06:39:58;104.90;;;39.00;;
50291;SDS011;36190;54.980;73.388;2022-12-18T06:42:26;87.87;;;34.03;;
50291;SDS011;36190;54.980;73.388;2022-12-18T06:44:54;97.93;;;35.00;;
50291;SDS011;36190;54.980;73.388;2022-12-18T06:47:22;103.93;;;37.17;;
50291;SDS011;36190;54.980;73.388;2022-12-18T06:49:51;106.47;;;40.37;;
50291;SDS011;36190;54.980;73.388;2022-12-18T06:52:19;105.07;;;37.83;;
50291;SDS011;36190;54.980;73.388;2022-12-18T06:54:46;104.13;;;37.60;;
50291;SDS011;36190;54.980;73.388;2022-12-18T06:57:13;53.37;;;20.03;;
50291;SDS011;36190;54.980;73.388;2022-12-18T06:59:41;57.10;;;20.80;;
50291;SDS011;36190;54.980;73.388;2022-12-18T07:02:10;71.37;;;28.03;;
50291;SDS011;36190;54.980;73.388;2022-12-18T07:04:39;81.10;;;31.23;;
50291;SDS011;36190;54.980;73.388;2022-12-18T07:07:08;88.63;;;33.33;;
50291;SDS011;36190;54.980;73.388;2022-12-18T07:09:35;90.17;;;31.50;;
50291;SDS011;36190;54.980;73.388;2022-12-18T07:12:03;89.33;;;33.57;;
50291;SDS011;36190;54.980;73.388;2022-12-18T07:14:32;108.93;;;37.87;;
50291;SDS011;36190;54.980;73.388;2022-12-18T07:16:59;98.67;;;34.40;;
50291;SDS011;36190;54.980;73.388;2022-12-18T07:19:26;70.37;;;25.87;;
50291;SDS011;36190;54.980;73.388;2022-12-18T07:21:54;73.47;;;27.03;;
50291;SDS011;36190;54.980;73.388;2022-12-18T07:24:23;78.50;;;28.50;;
50291;SDS011;36190;54.980;73.388;2022-12-18T07:26:50;94.63;;;36.43;;
50291;SDS011;36190;54.980;73.388;2022-12-18T07:29:18;96.47;;;35.90;;
50291;SDS011;36190;54.980;73.388;2022-12-18T07:31:46;91.33;;;33.83;;
50291;SDS011;36190;54.980;73.388;2022-12-18T07:34:14;95.87;;;34.60;;
50291;SDS011;36190;54.980;73.388;2022-12-18T07:36:42;81.80;;;31.23;;
50291;SDS011;36190;54.980;73.388;2022-12-18T07:39:10;77.10;;;31.97;;
50291;SDS011;36190;54.980;73.388;2022-12-18T07:41:39;84.43;;;31.37;;
50291;SDS011;36190;54.980;73.388;2022-12-18T07:44:11;73.70;;;29.67;;
50291;SDS011;36190;54.980;73.388;2022-12-18T07:46:39;69.93;;;25.23;;
50291;SDS011;36190;54.980;73.388;2022-12-18T07:49:07;77.20;;;32.13;;
50291;SDS011;36190;54.980;73.388;2022-12-18T07:51:34;67.27;;;28.70;;
50291;SDS011;36190;54.980;73.388;2022-12-18T07:54:01;78.03;;;30.10;;
50291;SDS011;36190;54.980;73.388;2022-12-18T07:56:29;85.73;;;30.93;;
50291;SDS011;36190;54.980;73.388;2022-12-18T07:58:58;72.80;;;30.53;;
50291;SDS011;36190;54.980;73.388;2022-12-18T08:01:26;90.63;;;33.60;;
50291;SDS011;36190;54.980;73.388;2022-12-18T08:03:53;88.40;;;36.30;;
50291;SDS011;36190;54.980;73.388;2022-12-18T08:06:21;94.43;;;34.13;;
50291;SDS011;36190;54.980;73.388;2022-12-18T08:08:48;87.70;;;35.27;;
50291;SDS011;36190;54.980;73.388;2022-12-18T08:11:17;87.27;;;36.33;;
50291;SDS011;36190;54.980;73.388;2022-12-18T08:13:44;93.47;;;33.47;;
50291;SDS011;36190;54.980;73.388;2022-12-18T08:16:13;80.57;;;31.37;;
50291;SDS011;36190;54.980;73.388;2022-12-18T08:18:40;75.20;;;30.30;;
50291;SDS011;36190;54.980;73.388;2022-12-18T08:21:08;82.00;;;29.80;;
50291;SDS011;36190;54.980;73.388;2022-12-18T08:23:36;71.13;;;27.17;;
50291;SDS011;36190;54.980;73.388;2022-12-18T08:26:04;74.37;;;27.83;;
50291;SDS011;36190;54.980;73.388;2022-12-18T08:28:32;68.13;;;27.17;;
50291;SDS011;36190;54.980;73.388;2022-12-18T08:31:00;65.80;;;26.73;;
50291;SDS011;36190;54.980;73.388;2022-12-18T08:33:29;62.43;;;26.20;;
50291;SDS011;36190;54.980;73.388;2022-12-18T08:35:57;63.87;;;25.23;;
50291;SDS011;36190;54.980;73.388;2022-12-18T08:38:25;78.87;;;31.87;;
50291;SDS011;36190;54.980;73.388;2022-12-18T08:40:57;74.67;;;25.70;;
50291;SDS011;36190;54.980;73.388;2022-12-18T08:43:25;53.90;;;23.80;;
50291;SDS011;36190;54.980;73.388;2022-12-18T08:46:11;70.30;;;27.30;;
50291;SDS011;36190;54.980;73.388;2022-12-18T08:48:40;54.47;;;25.23;;
50291;SDS011;36190;54.980;73.388;2022-12-18T08:51:07;53.93;;;23.20;;
50291;SDS011;36190;54.980;73.388;2022-12-18T08:53:35;56.07;;;22.77;;
50291;SDS011;36190;54.980;73.388;2022-12-18T08:56:03;53.83;;;21.20;;
50291;SDS011;36190;54.980;73.388;2022-12-18T08:58:31;53.80;;;22.97;;
50291;SDS011;36190;54.980;73.388;2022-12-18T09:00:59;58.50;;;24.30;;
50291;SDS011;36190;54.980;73.388;2022-12-18T09:03:27;47.27;;;19.33;;
50291;SDS011;36190;54.980;73.388;2022-12-18T09:05:56;46.03;;;20.40;;
50291;SDS011;36190;54.980;73.388;2022-12-18T09:08:24;46.37;;;19.93;;
50291;SDS011;36190;54.980;73.388;2022-12-18T09:10:52;49.40;;;20.57;;
50291;SDS011;36190;54.980;73.388;2022-12-18T09:13:20;58.03;;;23.60;;
50291;SDS011;36190;54.980;73.388;2022-12-18T09:15:49;70.73;;;27.47;;
50291;SDS011;36190;54.980;73.388;2022-12-18T09:18:18;45.73;;;20.67;;
50291;SDS011;36190;54.980;73.388;2022-12-18T09:20:46;46.37;;;20.30;;
50291;SDS011;36190;54.980;73.388;2022-12-18T09:23:16;49.67;;;18.77;;
50291;SDS011;36190;54.980;73.388;2022-12-18T09:25:44;48.77;;;21.37;;
50291;SDS011;36190;54.980;73.388;2022-12-18T09:28:12;51.53;;;20.13;;
50291;SDS011;36190;54.980;73.388;2022-12-18T09:30:41;42.40;;;19.73;;
50291;SDS011;36190;54.980;73.388;2022-12-18T09:33:10;49.73;;;20.43;;
50291;SDS011;36190;54.980;73.388;2022-12-18T09:35:38;47.30;;;18.87;;
50291;SDS011;36190;54.980;73.388;2022-12-18T09:38:06;43.87;;;18.50;;
50291;SDS011;36190;54.980;73.388;2022-12-18T09:40:39;43.53;;;18.20;;
50291;SDS011;36190;54.980;73.388;2022-12-18T09:43:13;40.53;;;18.07;;
50291;SDS011;36190;54.980;73.388;2022-12-18T09:45:45;44.43;;;18.07;;
50291;SDS011;36190;54.980;73.388;2022-12-18T09:48:15;52.23;;;21.57;;
50291;SDS011;36190;54.980;73.388;2022-12-18T09:50:48;45.72;;;19.65;;
50291;SDS011;36190;54.980;73.388;2022-12-18T09:53:20;45.20;;;20.37;;
50291;SDS011;36190;54.980;73.388;2022-12-18T09:55:54;50.75;;;19.80;;
50291;SDS011;36190;54.980;73.388;2022-12-18T09:58:26;52.70;;;19.10;;
50291;SDS011;36190;54.980;73.388;2022-12-18T10:00:57;47.08;;;19.40;;
50291;SDS011;36190;54.980;73.388;2022-12-18T10:03:24;51.23;;;22.17;;
50291;SDS011;36190;54.980;73.388;2022-12-18T10:05:55;45.70;;;20.73;;
50291;SDS011;36190;54.980;73.388;2022-12-18T10:08:32;42.83;;;17.93;;
50291;SDS011;36190;54.980;73.388;2022-12-18T10:11:16;58.27;;;22.27;;
50291;SDS011;36190;54.980;73.388;2022-12-18T10:13:54;48.13;;;18.23;;
50291;SDS011;36190;54.980;73.388;2022-12-18T10:16:29;42.43;;;18.70;;
50291;SDS011;36190;54.980;73.388;2022-12-18T10:19:13;50.47;;;19.43;;
50291;SDS011;36190;54.980;73.388;2022-12-18T10:21:52;51.73;;;18.97;;
50291;SDS011;36190;54.980;73.388;2022-12-18T10:24:30;50.97;;;19.83;;
50291;SDS011;36190;54.980;73.388;2022-12-18T10:27:09;51.23;;;19.80;;
50291;SDS011;36190;54.980;73.388;2022-12-18T10:29:41;50.50;;;20.50;;
50291;SDS011;36190;54.980;73.388;2022-12-18T10:32:13;49.57;;;18.43;;
50291;SDS011;36190;54.980;73.388;2022-12-18T10:34:44;55.07;;;21.33;;
50291;SDS011;36190;54.980;73.388;2022-12-18T10:37:14;50.83;;;20.53;;
50291;SDS011;36190;54.980;73.388;2022-12-18T10:39:44;53.07;;;21.07;;
50291;SDS011;36190;54.980;73.388;2022-12-18T10:42:16;47.23;;;21.00;;
50291;SDS011;36190;54.980;73.388;2022-12-18T10:44:44;46.87;;;18.60;;
50291;SDS011;36190;54.980;73.388;2022-12-18T10:47:12;46.77;;;19.07;;
50291;SDS011;36190;54.980;73.388;2022-12-18T10:49:47;48.30;;;20.17;;
50291;SDS011;36190;54.980;73.388;2022-12-18T10:52:18;39.57;;;18.00;;
50291;SDS011;36190;54.980;73.388;2022-12-18T10:54:48;44.43;;;19.40;;
50291;SDS011;36190;54.980;73.388;2022-12-18T10:57:28;44.37;;;18.80;;
50291;SDS011;36190;54.980;73.388;2022-12-18T10:59:58;45.07;;;20.70;;
50291;SDS011;36190;54.980;73.388;2022-12-18T11:05:01;41.97;;;17.80;;
50291;SDS011;36190;54.980;73.388;2022-12-18T11:07:47;49.13;;;19.23;;
50291;SDS011;36190;54.980;73.388;2022-12-18T11:10:16;48.17;;;19.40;;
50291;SDS011;36190;54.980;73.388;2022-12-18T11:12:46;45.07;;;19.43;;
50291;SDS011;36190;54.980;73.388;2022-12-18T11:15:15;55.80;;;22.97;;
50291;SDS011;36190;54.980;73.388;2022-12-18T11:17:47;44.40;;;19.63;;
50291;SDS011;36190;54.980;73.388;2022-12-18T11:20:20;52.43;;;21.63;;
50291;SDS011;36190;54.980;73.388;2022-12-18T11:22:54;68.73;;;25.80;;
50291;SDS011;36190;54.980;73.388;2022-12-18T11:25:23;69.37;;;27.37;;
50291;SDS011;36190;54.980;73.388;2022-12-18T11:27:54;74.20;;;28.37;;
50291;SDS011;36190;54.980;73.388;2022-12-18T11:30:24;55.03;;;23.87;;
50291;SDS011;36190;54.980;73.388;2022-12-18T11:32:54;49.10;;;21.17;;
50291;SDS011;36190;54.980;73.388;2022-12-18T11:35:38;50.63;;;22.67;;
50291;SDS011;36190;54.980;73.388;2022-12-18T11:38:13;63.30;;;25.33;;
50291;SDS011;36190;54.980;73.388;2022-12-18T11:40:49;52.70;;;24.10;;
50291;SDS011;36190;54.980;73.388;2022-12-18T11:43:25;56.58;;;25.17;;
50291;SDS011;36190;54.980;73.388;2022-12-18T11:45:59;60.13;;;22.87;;
50291;SDS011;36190;54.980;73.388;2022-12-18T11:48:30;53.03;;;22.23;;
50291;SDS011;36190;54.980;73.388;2022-12-18T11:53:36;48.30;;;20.77;;
50291;SDS011;36190;54.980;73.388;2022-12-18T11:56:11;45.80;;;19.10;;
50291;SDS011;36190;54.980;73.388;2022-12-18T11:58:55;48.60;;;19.07;;
50291;SDS011;36190;54.980;73.388;2022-12-18T12:01:35;42.33;;;18.00;;
50291;SDS011;36190;54.980;73.388;2022-12-18T12:04:16;46.17;;;21.20;;
50291;SDS011;36190;54.980;73.388;2022-12-18T12:07:04;46.03;;;20.60;;
50291;SDS011;36190;54.980;73.388;2022-12-18T12:09:43;46.43;;;22.07;;
50291;SDS011;36190;54.980;73.388;2022-12-18T12:12:24;50.77;;;22.27;;
50291;SDS011;36190;54.980;73.388;2022-12-18T12:15:13;46.90;;;19.63;;
50291;SDS011;36190;54.980;73.388;2022-12-18T12:17:49;53.27;;;22.10;;
50291;SDS011;36190;54.980;73.388;2022-12-18T12:20:24;55.33;;;22.53;;
50291;SDS011;36190;54.980;73.388;2022-12-18T12:22:59;59.80;;;23.73;;
50291;SDS011;36190;54.980;73.388;2022-12-18T12:25:33;68.47;;;25.60;;
50291;SDS011;36190;54.980;73.388;2022-12-18T12:28:11;52.33;;;24.02;;
50291;SDS011;36190;54.980;73.388;2022-12-18T12:30:50;48.37;;;20.13;;
50291;SDS011;36190;54.980;73.388;2022-12-18T12:33:30;52.50;;;23.00;;
50291;SDS011;36190;54.980;73.388;2022-12-18T12:36:08;59.87;;;21.60;;
50291;SDS011;36190;54.980;73.388;2022-12-18T12:38:44;48.23;;;19.30;;
50291;SDS011;36190;54.980;73.388;2022-12-18T12:41:17;54.00;;;19.20;;
50291;SDS011;36190;54.980;73.388;2022-12-18T12:44:07;51.53;;;22.37;;
50291;SDS011;36190;54.980;73.388;2022-12-18T12:49:09;42.03;;;17.80;;
50291;SDS011;36190;54.980;73.388;2022-12-18T12:51:41;56.17;;;22.73;;
50291;SDS011;36190;54.980;73.388;2022-12-18T12:54:13;57.77;;;24.77;;
50291;SDS011;36190;54.980;73.388;2022-12-18T12:56:45;61.37;;;26.63;;
50291;SDS011;36190;54.980;73.388;2022-12-18T12:59:19;69.05;;;27.25;;
50291;SDS011;36190;54.980;73.388;2022-12-18T13:01:57;58.93;;;22.90;;
50291;SDS011;36190;54.980;73.388;2022-12-18T13:04:33;49.37;;;21.40;;
50291;SDS011;36190;54.980;73.388;2022-12-18T13:07:10;44.67;;;17.70;;
50291;SDS011;36190;54.980;73.388;2022-12-18T13:12:52;37.97;;;14.20;;
50291;SDS011;36190;54.980;73.388;2022-12-18T13:15:23;38.47;;;15.07;;
50291;SDS011;36190;54.980;73.388;2022-12-18T13:18:06;44.57;;;16.33;;
50291;SDS011;36190;54.980;73.388;2022-12-18T13:20:41;36.37;;;15.20;;
50291;SDS011;36190;54.980;73.388;2022-12-18T13:23:25;42.03;;;17.33;;
50291;SDS011;36190;54.980;73.388;2022-12-18T13:25:58;38.47;;;15.80;;
50291;SDS011;36190;54.980;73.388;2022-12-18T13:28:50;42.63;;;16.47;;
50291;SDS011;36190;54.980;73.388;2022-12-18T13:34:37;38.87;;;14.10;;
50291;SDS011;36190;54.980;73.388;2022-12-18T13:43:35;33.10;;;15.77;;
50291;SDS011;36190;54.980;73.388;2022-12-18T13:46:18;32.20;;;12.83;;
50291;SDS011;36190;54.980;73.388;2022-12-18T13:48:52;51.43;;;16.43;;
50291;SDS011;36190;54.980;73.388;2022-12-18T13:51:23;41.27;;;16.70;;
50291;SDS011;36190;54.980;73.388;2022-12-18T13:53:53;35.03;;;16.20;;
50291;SDS011;36190;54.980;73.388;2022-12-18T13:56:23;44.57;;;16.77;;
50291;SDS011;36190;54.980;73.388;2022-12-18T14:01:43;55.53;;;19.03;;
50291;SDS011;36190;54.980;73.388;2022-12-18T14:04:17;69.70;;;24.67;;
50291;SDS011;36190;54.980;73.388;2022-12-18T14:06:52;39.83;;;16.73;;
50291;SDS011;36190;54.980;73.388;2022-12-18T14:09:24;50.67;;;18.95;;
50291;SDS011;36190;54.980;73.388;2022-12-18T14:11:55;35.93;;;16.50;;
50291;SDS011;36190;54.980;73.388;2022-12-18T14:14:37;50.97;;;18.70;;
50291;SDS011;36190;54.980;73.388;2022-12-18T14:17:09;42.27;;;18.40;;
50291;SDS011;36190;54.980;73.388;2022-12-18T14:19:40;41.53;;;16.87;;
50291;SDS011;36190;54.980;73.388;2022-12-18T14:22:13;38.13;;;16.47;;
50291;SDS011;36190;54.980;73.388;2022-12-18T14:24:43;39.10;;;16.37;;
50291;SDS011;36190;54.980;73.388;2022-12-18T14:27:20;38.87;;;15.43;;
50291;SDS011;36190;54.980;73.388;2022-12-18T14:29:50;45.07;;;16.80;;
50291;SDS011;36190;54.980;73.388;2022-12-18T14:32:18;38.13;;;14.50;;
50291;SDS011;36190;54.980;73.388;2022-12-18T14:34:48;33.37;;;14.00;;
50291;SDS011;36190;54.980;73.388;2022-12-18T14:37:20;39.50;;;15.03;;
50291;SDS011;36190;54.980;73.388;2022-12-18T14:39:56;37.87;;;13.90;;
50291;SDS011;36190;54.980;73.388;2022-12-18T14:42:25;36.13;;;13.90;;
50291;SDS011;36190;54.980;73.388;2022-12-18T14:47:58;33.38;;;12.85;;
50291;SDS011;36190;54.980;73.388;2022-12-18T14:50:25;34.03;;;14.10;;
50291;SDS011;36190;54.980;73.388;2022-12-18T14:52:57;35.57;;;14.17;;
50291;SDS011;36190;54.980;73.388;2022-12-18T14:55:25;37.43;;;15.53;;
50291;SDS011;36190;54.980;73.388;2022-12-18T14:57:53;33.80;;;14.20;;
50291;SDS011;36190;54.980;73.388;2022-12-18T15:00:24;39.23;;;16.00;;